createdAt,value
2023-01-02T00:00:53.965Z,98.39
2023-01-02T00:03:11.170Z,98.61
2023-01-02T00:05:28.307Z,99.05
2023-01-02T00:07:45.599Z,99.73
2023-01-02T00:10:02.482Z,100.00
2023-01-02T00:12:19.555Z,99.34
2023-01-02T00:14:37.009Z,100.00
2023-01-02T00:16:55.221Z,99.99
2023-01-02T00:19:12.549Z,99.56
2023-01-02T00:21:29.925Z,98.95
2023-01-02T00:23:46.935Z,100.00
2023-01-02T00:26:04.257Z,100.00
2023-01-02T00:28:21.615Z,99.32
2023-01-02T00:30:45.098Z,100.00
2023-01-02T00:33:02.151Z,100.00
2023-01-02T00:35:19.431Z,99.96
2023-01-02T00:37:36.388Z,99.38
2023-01-02T00:39:53.750Z,99.77
2023-01-02T00:42:10.803Z,100.00
2023-01-02T00:44:27.824Z,99.23
2023-01-02T00:46:45.154Z,99.68
2023-01-02T00:49:02.233Z,99.75
2023-01-02T00:51:19.187Z,100.00
2023-01-02T00:53:36.203Z,100.00
2023-01-02T00:55:53.168Z,99.20
2023-01-02T00:58:10.522Z,99.89
2023-01-02T01:00:27.870Z,99.67
2023-01-02T01:02:45.139Z,99.17
2023-01-02T01:05:02.503Z,99.47
2023-01-02T01:07:19.842Z,99.30
2023-01-02T01:09:37.098Z,98.71
2023-01-02T01:11:54.339Z,99.43
2023-01-02T01:14:11.674Z,98.74
2023-01-02T01:16:28.823Z,98.65
2023-01-02T01:18:47.152Z,99.57
2023-01-02T01:21:04.510Z,98.92
2023-01-02T01:23:22.785Z,98.69
2023-01-02T01:25:40.092Z,98.69
2023-01-02T01:27:58.105Z,98.31
2023-01-02T01:30:15.036Z,99.57
2023-01-02T01:32:33.275Z,99.34
2023-01-02T01:34:50.321Z,98.85
2023-01-02T01:37:07.569Z,99.13
2023-01-02T01:39:24.810Z,99.53
2023-01-02T01:41:42.798Z,99.29
2023-01-02T01:43:59.837Z,99.06
2023-01-02T01:46:16.944Z,99.69
2023-01-02T01:48:34.350Z,99.47
2023-01-02T01:50:51.316Z,100.00
2023-01-02T01:53:08.244Z,99.21
2023-01-02T01:55:25.185Z,99.63
2023-01-02T01:57:42.246Z,99.46
2023-01-02T01:59:59.212Z,99.38
2023-01-02T02:02:16.171Z,99.03
2023-01-02T02:04:33.649Z,99.54
2023-01-02T02:06:50.652Z,99.12
2023-01-02T02:09:07.749Z,98.99
2023-01-02T02:11:24.742Z,98.79
2023-01-02T02:13:41.825Z,98.75
2023-01-02T02:15:58.936Z,98.81
2023-01-02T02:18:16.245Z,98.57
2023-01-02T02:20:33.549Z,98.72
2023-01-02T02:22:51.084Z,98.86
2023-01-02T02:25:08.040Z,99.29
2023-01-02T02:27:25.086Z,99.45
2023-01-02T02:29:42.461Z,99.47
2023-01-02T02:31:59.812Z,99.08
2023-01-02T02:34:17.180Z,99.07
2023-01-02T02:36:34.147Z,99.32
2023-01-02T02:38:51.176Z,98.57
2023-01-02T02:41:08.392Z,98.76
2023-01-02T02:43:25.537Z,99.22
2023-01-02T02:45:42.505Z,99.32
2023-01-02T02:47:59.869Z,99.22
2023-01-02T02:50:17.909Z,99.28
2023-01-02T02:52:34.996Z,99.42
2023-01-02T02:54:52.310Z,98.55
2023-01-02T02:57:09.602Z,99.12
2023-01-02T02:59:27.176Z,98.45
2023-01-02T03:01:44.579Z,99.05
2023-01-02T03:04:01.593Z,98.65
2023-01-02T03:06:19.631Z,99.29
2023-01-02T03:08:36.723Z,98.65
2023-01-02T03:10:54.407Z,99.53
2023-01-02T03:13:11.487Z,99.32
2023-01-02T03:15:28.488Z,98.84
2023-01-02T03:17:45.768Z,98.95
2023-01-02T03:20:03.764Z,99.26
2023-01-02T03:22:20.849Z,98.69
2023-01-02T03:24:37.920Z,99.02
2023-01-02T03:26:54.806Z,99.38
2023-01-02T03:29:11.868Z,98.99
2023-01-02T03:31:30.180Z,99.14
2023-01-02T03:33:48.171Z,99.40
2023-01-02T03:36:05.457Z,98.94
2023-01-02T03:38:22.837Z,98.94
2023-01-02T03:40:40.086Z,99.37
2023-01-02T03:42:57.303Z,99.12
2023-01-02T03:45:14.356Z,99.29
2023-01-02T03:47:31.423Z,99.29
2023-01-02T03:49:48.363Z,99.54
2023-01-02T03:52:05.212Z,99.48
2023-01-02T03:54:22.202Z,99.84
2023-01-02T03:56:39.593Z,99.65
2023-01-02T03:58:56.876Z,99.72
2023-01-02T04:01:14.237Z,99.49
2023-01-02T04:03:32.309Z,99.35
2023-01-02T04:05:49.462Z,99.34
2023-01-02T04:08:06.833Z,99.40
2023-01-02T04:10:24.803Z,99.70
2023-01-02T04:12:41.871Z,99.48
2023-01-02T04:14:59.004Z,99.48
2023-01-02T04:17:15.947Z,100.00
2023-01-02T04:19:33.047Z,99.63
2023-01-02T04:21:51.083Z,99.57
2023-01-02T04:24:08.468Z,100.00
2023-01-02T04:26:25.521Z,99.88
2023-01-02T04:28:42.608Z,99.86
2023-01-02T04:31:00.920Z,100.00
2023-01-02T04:33:18.211Z,99.55
2023-01-02T04:35:36.548Z,99.55
2023-01-02T04:37:53.911Z,99.58
2023-01-02T04:40:10.850Z,99.71
2023-01-02T04:42:28.144Z,99.49
2023-01-02T04:44:46.352Z,99.64
2023-01-02T04:47:03.392Z,99.36
2023-01-02T04:49:20.492Z,99.69
2023-01-02T04:51:37.825Z,99.36
2023-01-02T04:53:54.833Z,99.78
2023-01-02T04:56:14.172Z,99.79
2023-01-02T04:58:31.475Z,100.00
2023-01-02T05:00:49.666Z,100.00
2023-01-02T05:03:06.794Z,100.00
2023-01-02T05:05:24.131Z,100.00
2023-01-02T05:07:41.475Z,100.00
2023-01-02T05:09:59.752Z,100.00
2023-01-02T05:12:17.159Z,100.00
2023-01-02T05:14:34.461Z,100.00
2023-01-02T05:16:52.524Z,100.00
2023-01-02T05:19:10.194Z,100.00
2023-01-02T05:21:27.510Z,100.00
2023-01-02T05:23:44.455Z,100.00
2023-01-02T05:26:01.828Z,100.00
2023-01-02T05:28:19.119Z,100.00
2023-01-02T05:30:36.093Z,100.00
2023-01-02T05:32:53.396Z,100.00
2023-01-02T05:35:11.345Z,100.00
2023-01-02T05:37:29.472Z,100.00
2023-01-02T05:39:46.786Z,100.00
2023-01-02T05:42:04.056Z,100.00
2023-01-02T05:44:21.348Z,100.00
2023-01-02T05:46:38.458Z,100.00
2023-01-02T05:48:55.530Z,100.00
2023-01-02T05:51:12.588Z,100.00
2023-01-02T05:53:29.590Z,100.00
2023-01-02T05:55:46.608Z,100.00
2023-01-02T05:58:03.871Z,100.00
2023-01-02T06:00:20.936Z,100.00
2023-01-02T06:02:39.057Z,99.84
2023-01-02T06:04:56.086Z,99.50
2023-01-02T06:07:13.304Z,100.00
2023-01-02T06:09:30.565Z,100.00
2023-01-02T06:11:47.985Z,99.82
2023-01-02T06:14:05.264Z,100.00
2023-01-02T06:16:22.276Z,100.00
2023-01-02T06:18:39.508Z,100.00
2023-01-02T06:20:56.508Z,100.00
2023-01-02T06:23:13.477Z,100.00
2023-01-02T06:25:30.533Z,100.00
2023-01-02T06:27:47.517Z,100.00
2023-01-02T06:30:04.773Z,100.00
2023-01-02T06:32:21.888Z,100.00
2023-01-02T06:34:39.790Z,100.00
2023-01-02T06:36:56.830Z,100.00
2023-01-02T06:39:14.925Z,100.00
2023-01-02T06:41:32.264Z,100.00
2023-01-02T06:43:49.167Z,100.00
2023-01-02T06:46:06.257Z,100.00
2023-01-02T06:48:23.340Z,100.00
2023-01-02T06:50:40.300Z,100.00
2023-01-02T06:52:57.308Z,100.00
2023-01-02T06:55:14.455Z,100.00
2023-01-02T06:57:32.566Z,100.00
2023-01-02T06:59:49.670Z,100.00
2023-01-02T07:02:06.808Z,100.00
2023-01-02T07:04:24.852Z,100.00
2023-01-02T07:06:42.137Z,100.00
2023-01-02T07:08:59.165Z,100.00
2023-01-02T07:11:17.130Z,100.00
2023-01-02T07:13:34.119Z,100.00
2023-01-02T07:15:51.090Z,100.00
2023-01-02T07:18:08.095Z,100.00
2023-01-02T07:20:26.450Z,100.00
2023-01-02T07:22:44.443Z,100.00
2023-01-02T07:25:01.469Z,100.00
2023-01-02T07:27:18.822Z,100.00
2023-01-02T07:29:36.065Z,100.00
2023-01-02T07:31:54.091Z,100.00
2023-01-02T07:34:12.347Z,99.99
2023-01-02T07:36:29.372Z,100.00
2023-01-02T07:38:46.365Z,100.00
2023-01-02T07:41:03.627Z,100.00
2023-01-02T07:43:21.838Z,100.00
2023-01-02T07:45:38.815Z,100.00
2023-01-02T07:47:56.107Z,100.00
2023-01-02T07:50:13.138Z,100.00
2023-01-02T07:52:30.182Z,100.00
2023-01-02T07:54:47.220Z,100.00
2023-01-02T07:57:04.265Z,100.00
2023-01-02T07:59:21.210Z,100.00
2023-01-02T08:01:38.277Z,100.00
2023-01-02T08:03:55.672Z,100.00
2023-01-02T08:06:12.637Z,100.00
2023-01-02T08:08:29.720Z,100.00
2023-01-02T08:10:46.719Z,100.00
2023-01-02T08:13:04.047Z,100.00
2023-01-02T08:15:21.366Z,100.00
2023-01-02T08:17:38.623Z,100.00
2023-01-02T08:19:55.631Z,100.00
2023-01-02T08:22:12.895Z,100.00
2023-01-02T08:24:30.322Z,100.00
2023-01-02T08:26:47.568Z,100.00
2023-01-02T08:29:04.777Z,100.00
2023-01-02T08:31:21.785Z,100.00
2023-01-02T08:33:38.776Z,100.00
2023-01-02T08:35:56.046Z,100.00
2023-01-02T08:38:13.024Z,100.00
2023-01-02T08:40:30.091Z,100.00
2023-01-02T08:42:47.306Z,100.00
2023-01-02T08:45:04.323Z,100.00
2023-01-02T08:47:21.220Z,100.00
2023-01-02T08:49:38.243Z,100.00
2023-01-02T08:51:55.308Z,100.00
2023-01-02T08:54:12.345Z,100.00
2023-01-02T08:56:29.377Z,100.00
2023-01-02T08:58:52.354Z,100.00
2023-01-02T09:01:09.705Z,100.00
2023-01-02T09:03:26.933Z,100.00
2023-01-02T09:05:43.981Z,100.00
2023-01-02T09:08:01.288Z,100.00
2023-01-02T09:10:18.369Z,100.00
2023-01-02T09:12:37.294Z,100.00
2023-01-02T09:14:54.644Z,100.00
2023-01-02T09:17:11.615Z,100.00
2023-01-02T09:19:29.579Z,100.00
2023-01-02T09:21:46.980Z,100.00
2023-01-02T09:24:04.444Z,100.00
2023-01-02T09:26:26.056Z,100.00
2023-01-02T09:28:43.032Z,100.00
2023-01-02T09:31:00.683Z,100.00
2023-01-02T09:33:18.106Z,98.90
2023-01-02T09:35:35.079Z,99.53
2023-01-02T09:37:52.231Z,100.00
2023-01-02T09:40:10.613Z,99.50
2023-01-02T09:42:28.186Z,98.96
2023-01-02T09:44:45.620Z,99.33
2023-01-02T09:47:02.933Z,99.67
2023-01-02T09:49:20.055Z,99.27
2023-01-02T09:51:37.241Z,99.76
2023-01-02T09:53:54.679Z,100.00
2023-01-02T09:56:11.784Z,98.51
2023-01-02T09:58:29.059Z,98.48
2023-01-02T10:00:46.301Z,99.57
2023-01-02T10:03:08.041Z,99.41
2023-01-02T10:05:25.745Z,99.50
2023-01-02T10:07:42.733Z,99.85
2023-01-02T10:10:00.118Z,100.00
2023-01-02T10:12:17.556Z,99.98
2023-01-02T10:14:42.040Z,99.84
2023-01-02T10:17:01.657Z,99.29
2023-01-02T10:19:18.705Z,100.00
2023-01-02T10:21:36.013Z,98.91
2023-01-02T10:23:52.985Z,98.64
2023-01-02T10:26:10.190Z,98.88
2023-01-02T10:28:27.230Z,99.00
2023-01-02T10:30:44.614Z,99.26
2023-01-02T10:33:01.582Z,99.67
2023-01-02T10:35:20.189Z,99.86
2023-01-02T10:37:38.081Z,100.00
2023-01-02T10:39:55.081Z,100.00
2023-01-02T10:42:12.082Z,100.00
2023-01-02T10:44:29.079Z,98.50
2023-01-02T10:46:46.221Z,96.74
2023-01-02T10:49:03.378Z,96.32
2023-01-02T10:51:21.380Z,98.22
2023-01-02T10:53:38.930Z,96.79
2023-01-02T10:55:56.003Z,97.23
2023-01-02T10:58:12.885Z,98.07
2023-01-02T11:00:30.735Z,97.77
2023-01-02T11:02:48.115Z,97.77
2023-01-02T11:05:05.534Z,97.29
2023-01-02T11:07:22.637Z,96.33
2023-01-02T11:09:39.947Z,97.55
2023-01-02T11:11:57.228Z,97.72
2023-01-02T11:14:14.508Z,95.15
2023-01-02T11:16:31.829Z,96.33
2023-01-02T11:18:48.760Z,96.73
2023-01-02T11:21:05.768Z,97.37
2023-01-02T11:23:22.901Z,97.81
2023-01-02T11:25:39.862Z,98.69
2023-01-02T11:27:56.903Z,97.75
2023-01-02T11:30:13.860Z,97.48
2023-01-02T11:32:30.869Z,97.50
2023-01-02T11:34:49.317Z,97.36
2023-01-02T11:37:06.359Z,97.07
2023-01-02T11:39:23.434Z,95.70
2023-01-02T11:41:40.476Z,95.97
2023-01-02T11:43:57.913Z,96.43
2023-01-02T11:46:15.325Z,96.54
2023-01-02T11:48:32.370Z,97.17
2023-01-02T11:50:49.763Z,97.17
2023-01-02T11:53:06.850Z,97.37
2023-01-02T11:55:23.884Z,96.48
2023-01-02T11:57:41.144Z,96.75
2023-01-02T11:59:59.129Z,97.26
2023-01-02T12:02:16.272Z,97.58
2023-01-02T12:04:33.325Z,98.21
2023-01-02T12:06:50.282Z,98.65
2023-01-02T12:09:07.281Z,98.08
2023-01-02T12:11:24.451Z,98.44
2023-01-02T12:13:41.713Z,98.25
2023-01-02T12:15:58.928Z,98.72
2023-01-02T12:18:16.172Z,97.69
2023-01-02T12:20:33.465Z,97.97
2023-01-02T12:22:50.492Z,98.01
2023-01-02T12:25:07.480Z,98.68
2023-01-02T12:27:25.412Z,99.40
2023-01-02T12:29:48.217Z,98.67
2023-01-02T12:32:06.864Z,99.22
2023-01-02T12:34:23.998Z,99.60
2023-01-02T12:36:41.046Z,99.41
2023-01-02T12:38:57.987Z,99.62
2023-01-02T12:41:15.180Z,99.70
2023-01-02T12:43:32.200Z,99.91
2023-01-02T12:45:52.360Z,100.00
2023-01-02T12:48:09.522Z,99.97
2023-01-02T12:50:26.588Z,99.85
2023-01-02T12:52:43.701Z,100.00
2023-01-02T12:55:00.757Z,100.00
2023-01-02T12:57:22.130Z,100.00
2023-01-02T12:59:40.008Z,100.00
2023-01-02T13:01:57.289Z,100.00
2023-01-02T13:04:14.760Z,100.00
2023-01-02T13:06:45.549Z,100.00
2023-01-02T13:09:04.620Z,100.00
2023-01-02T13:11:23.014Z,100.00
2023-01-02T13:13:40.139Z,100.00
2023-01-02T13:16:02.300Z,100.00
2023-01-02T13:18:20.530Z,100.00
2023-01-02T13:20:37.535Z,100.00
2023-01-02T13:22:56.553Z,100.00
2023-01-02T13:25:13.882Z,100.00
2023-01-02T13:27:30.926Z,100.00
2023-01-02T13:29:47.885Z,100.00
2023-01-02T13:32:04.932Z,100.00
2023-01-02T13:34:22.957Z,99.41
2023-01-02T13:36:40.489Z,98.22
2023-01-02T13:38:57.585Z,99.13
2023-01-02T13:41:14.601Z,98.90
2023-01-02T13:43:33.608Z,98.91
2023-01-02T13:45:50.679Z,99.04
2023-01-02T13:48:07.784Z,99.66
2023-01-02T13:50:25.695Z,99.08
2023-01-02T13:52:42.725Z,98.87
2023-01-02T13:55:00.162Z,98.43
2023-01-02T13:57:17.642Z,98.23
2023-01-02T13:59:41.736Z,98.02
2023-01-02T14:02:00.822Z,97.50
2023-01-02T14:04:17.841Z,97.45
2023-01-02T14:06:38.223Z,96.91
2023-01-02T14:08:55.360Z,96.36
2023-01-02T14:11:12.410Z,96.79
2023-01-02T14:13:29.498Z,96.38
2023-01-02T14:15:46.798Z,96.88
2023-01-02T14:18:03.817Z,96.85
2023-01-02T14:20:21.924Z,96.18
2023-01-02T14:22:40.158Z,96.64
2023-01-02T14:24:57.068Z,95.43
2023-01-02T14:27:14.148Z,95.43
2023-01-02T14:29:32.291Z,95.18
2023-01-02T14:31:49.582Z,95.18
2023-01-02T14:34:06.641Z,95.05
2023-01-02T14:36:26.808Z,94.75
2023-01-02T14:38:43.852Z,95.38
2023-01-02T14:41:00.775Z,95.64
2023-01-02T14:43:17.683Z,94.62
2023-01-02T14:45:34.541Z,94.78
2023-01-02T14:47:51.666Z,95.37
2023-01-02T14:50:08.744Z,94.55
2023-01-02T14:52:25.751Z,93.12
2023-01-02T14:54:43.041Z,93.65
2023-01-02T14:57:00.016Z,93.52
2023-01-02T14:59:17.388Z,93.46
2023-01-02T15:01:42.970Z,94.48
2023-01-02T15:04:07.490Z,94.58
2023-01-02T15:06:24.642Z,94.90
2023-01-02T15:08:41.618Z,95.72
2023-01-02T15:10:58.736Z,95.59
2023-01-02T15:13:16.728Z,96.34
2023-01-02T15:15:33.853Z,95.69
2023-01-02T15:17:51.734Z,97.28
2023-01-02T15:20:08.793Z,97.06
2023-01-02T15:22:26.151Z,97.41
2023-01-02T15:24:43.172Z,97.45
2023-01-02T15:27:00.272Z,98.18
2023-01-02T15:29:17.394Z,97.50
2023-01-02T15:31:34.662Z,97.78
2023-01-02T15:33:53.072Z,98.01
2023-01-02T15:36:10.367Z,99.01
2023-01-02T15:38:27.336Z,98.02
2023-01-02T15:40:44.649Z,97.86
2023-01-02T15:43:01.603Z,98.10
2023-01-02T15:45:18.894Z,98.32
2023-01-02T15:47:43.383Z,98.53
2023-01-02T15:50:00.684Z,100.00
2023-01-02T15:52:17.727Z,98.84
2023-01-02T15:54:37.496Z,99.45
2023-01-02T15:56:54.871Z,98.52
2023-01-02T15:59:11.811Z,99.41
2023-01-02T16:01:29.336Z,98.15
2023-01-02T16:04:02.741Z,97.33
2023-01-02T16:06:21.062Z,98.97
2023-01-02T16:08:38.413Z,98.46
2023-01-02T16:10:56.557Z,99.21
2023-01-02T16:13:13.443Z,99.00
2023-01-02T16:15:30.468Z,99.96
2023-01-02T16:17:47.454Z,99.67
2023-01-02T16:20:04.503Z,98.88
2023-01-02T16:22:21.411Z,99.70
2023-01-02T16:24:38.422Z,100.00
2023-01-02T16:26:55.454Z,100.00
2023-01-02T16:29:12.842Z,99.41
2023-01-02T16:31:30.137Z,100.00
2023-01-02T16:33:47.277Z,99.91
2023-01-02T16:36:04.376Z,100.00
2023-01-02T16:38:21.676Z,100.00
2023-01-02T16:40:58.775Z,100.00
2023-01-02T16:43:15.919Z,100.00
2023-01-02T16:45:32.894Z,100.00
2023-01-02T16:47:50.324Z,100.00
2023-01-02T16:50:08.635Z,100.00
2023-01-02T16:52:25.667Z,100.00
2023-01-02T16:54:49.228Z,100.00
2023-01-02T16:57:09.633Z,100.00
2023-01-02T16:59:26.732Z,100.00
2023-01-02T17:01:43.918Z,100.00
2023-01-02T17:04:01.053Z,100.00
2023-01-02T17:06:18.189Z,100.00
2023-01-02T17:08:35.135Z,99.31
2023-01-02T17:10:52.087Z,97.45
2023-01-02T17:13:09.092Z,95.55
2023-01-02T17:15:26.018Z,96.98
2023-01-02T17:17:43.027Z,94.86
2023-01-02T17:20:00.403Z,94.70
2023-01-02T17:22:17.370Z,94.44
2023-01-02T17:24:34.403Z,93.46
2023-01-02T17:26:51.336Z,94.81
2023-01-02T17:29:08.332Z,93.97
2023-01-02T17:31:26.194Z,95.25
2023-01-02T17:33:43.453Z,93.59
2023-01-02T17:36:00.392Z,92.96
2023-01-02T17:38:17.365Z,92.96
2023-01-02T17:40:34.420Z,93.94
2023-01-02T17:42:51.797Z,94.11
2023-01-02T17:45:09.011Z,93.84
2023-01-02T17:50:03.231Z,95.48
2023-01-02T17:52:20.561Z,96.10
2023-01-02T17:54:37.863Z,95.14
2023-01-02T17:56:54.887Z,96.41
2023-01-02T17:59:11.901Z,96.35
2023-01-02T18:01:29.089Z,96.03
2023-01-02T18:03:47.167Z,94.82
2023-01-02T18:06:04.143Z,94.76
2023-01-02T18:08:22.144Z,93.99
2023-01-02T18:10:39.378Z,93.71
2023-01-02T18:12:56.418Z,94.37
2023-01-02T18:15:13.706Z,94.80
2023-01-02T18:17:32.041Z,95.33
2023-01-02T18:19:49.140Z,95.41
2023-01-02T18:22:06.061Z,95.69
2023-01-02T18:24:24.101Z,94.90
2023-01-02T18:26:41.072Z,96.13
2023-01-02T18:29:01.516Z,97.05
2023-01-02T18:31:24.671Z,97.68
2023-01-02T18:33:42.771Z,96.50
2023-01-02T18:35:59.884Z,96.72
2023-01-02T18:38:17.248Z,98.12
2023-01-02T18:40:34.293Z,98.00
2023-01-02T18:42:52.571Z,97.28
2023-01-02T18:45:09.732Z,97.56
2023-01-02T18:47:27.034Z,97.64
2023-01-02T18:49:44.009Z,98.41
2023-01-02T18:52:01.267Z,98.31
2023-01-02T18:54:18.277Z,99.52
2023-01-02T18:56:35.337Z,99.20
2023-01-02T18:58:52.588Z,99.66
2023-01-02T19:01:09.876Z,99.94
2023-01-02T19:03:26.968Z,100.00
2023-01-02T19:05:44.120Z,98.69
2023-01-02T19:08:01.130Z,98.99
2023-01-02T19:10:18.146Z,100.00
2023-01-02T19:12:35.012Z,99.80
2023-01-02T19:14:52.297Z,99.01
2023-01-02T19:17:09.375Z,99.94
2023-01-02T19:19:26.698Z,98.76
2023-01-02T19:21:43.907Z,100.00
2023-01-02T19:24:01.139Z,100.00
2023-01-02T19:26:19.026Z,99.52
2023-01-02T19:28:36.313Z,99.61
2023-01-02T19:30:53.419Z,100.00
2023-01-02T19:33:10.488Z,99.23
2023-01-02T19:35:27.731Z,100.00
2023-01-02T19:37:45.019Z,99.31
2023-01-02T19:40:02.023Z,99.67
2023-01-02T19:42:19.322Z,99.93
2023-01-02T19:44:36.178Z,100.00
2023-01-02T19:46:54.112Z,100.00
2023-01-02T19:49:11.132Z,100.00
2023-01-02T19:51:28.215Z,100.00
2023-01-02T19:53:46.206Z,100.00
2023-01-02T19:56:03.263Z,100.00
2023-01-02T19:58:20.175Z,99.71
2023-01-02T20:00:37.242Z,100.00
2023-01-02T20:02:54.372Z,98.98
2023-01-02T20:05:14.740Z,99.29
2023-01-02T20:07:34.690Z,98.39
2023-01-02T20:09:51.918Z,97.00
2023-01-02T20:12:09.210Z,97.31
2023-01-02T20:14:26.140Z,96.97
2023-01-02T20:16:43.058Z,98.47
2023-01-02T20:19:00.155Z,98.49
2023-01-02T20:21:17.105Z,97.13
2023-01-02T20:23:34.018Z,97.12
2023-01-02T20:25:51.266Z,97.24
2023-01-02T20:28:08.342Z,98.12
2023-01-02T20:30:25.529Z,97.40
2023-01-02T20:32:42.515Z,97.80
2023-01-02T20:34:59.552Z,97.32
2023-01-02T20:37:16.613Z,98.06
2023-01-02T20:39:33.702Z,98.47
2023-01-02T20:41:50.819Z,98.70
2023-01-02T20:44:09.166Z,98.21
2023-01-02T20:46:26.252Z,98.01
2023-01-02T20:48:43.351Z,98.70
2023-01-02T20:51:00.397Z,98.38
2023-01-02T20:53:17.385Z,98.56
2023-01-02T20:55:34.313Z,99.16
2023-01-02T20:57:53.257Z,98.48
2023-01-02T21:00:10.666Z,98.96
2023-01-02T21:02:28.109Z,97.62
2023-01-02T21:04:45.354Z,99.01
2023-01-02T21:07:02.324Z,98.61
2023-01-02T21:09:19.580Z,99.29
2023-01-02T21:11:36.583Z,98.38
2023-01-02T21:13:54.659Z,99.61
2023-01-02T21:16:11.950Z,99.28
2023-01-02T21:18:29.242Z,98.53
2023-01-02T21:20:47.129Z,98.71
2023-01-02T21:23:04.540Z,98.88
2023-01-02T21:25:21.541Z,98.49
2023-01-02T21:27:38.610Z,98.10
2023-01-02T21:29:56.925Z,97.41
2023-01-02T21:32:14.540Z,97.99
2023-01-02T21:34:31.579Z,98.71
2023-01-02T21:36:48.587Z,97.78
2023-01-02T21:39:05.732Z,97.61
2023-01-02T21:41:22.693Z,98.76
2023-01-02T21:43:39.668Z,99.06
2023-01-02T21:45:56.748Z,99.31
2023-01-02T21:48:14.119Z,98.63
2023-01-02T21:50:31.614Z,99.14
2023-01-02T21:52:49.003Z,99.27
2023-01-02T21:55:06.969Z,98.64
2023-01-02T21:57:45.644Z,98.47
2023-01-02T22:00:01.353Z,99.51
2023-01-02T22:02:18.803Z,99.53
2023-01-02T22:04:36.097Z,99.78
2023-01-02T22:09:30.215Z,99.80
2023-01-02T22:11:47.239Z,99.48
2023-01-02T22:14:04.118Z,99.10
2023-01-02T22:16:21.265Z,99.74
2023-01-02T22:18:39.769Z,100.00
2023-01-02T22:20:57.090Z,99.59
2023-01-02T22:23:14.161Z,99.93
2023-01-02T22:25:32.200Z,100.00
2023-01-02T22:27:49.168Z,100.00
2023-01-02T22:30:27.169Z,100.00
2023-01-02T22:32:44.122Z,99.37
2023-01-02T22:35:01.127Z,99.36
2023-01-02T22:37:22.611Z,100.00
2023-01-02T22:39:40.090Z,100.00
2023-01-02T22:41:57.274Z,100.00
2023-01-02T22:44:14.662Z,100.00
2023-01-02T22:46:32.304Z,100.00
2023-01-02T22:48:49.630Z,100.00
2023-01-02T22:51:07.184Z,99.87
2023-01-02T22:53:24.140Z,99.93
2023-01-02T22:55:41.542Z,100.00
2023-01-02T22:57:58.559Z,100.00
2023-01-02T23:00:15.566Z,100.00
2023-01-02T23:02:32.727Z,100.00
2023-01-02T23:04:49.887Z,99.71
2023-01-02T23:07:23.780Z,99.67
2023-01-02T23:09:41.458Z,99.32
2023-01-02T23:11:58.902Z,99.18
2023-01-02T23:14:16.230Z,99.15
2023-01-02T23:16:33.370Z,99.54
2023-01-02T23:18:56.215Z,99.30
2023-01-02T23:21:16.709Z,99.23
2023-01-02T23:23:34.097Z,99.82
2023-01-02T23:25:51.395Z,99.81
2023-01-02T23:28:10.040Z,99.83
2023-01-02T23:30:30.732Z,99.21
2023-01-02T23:32:47.763Z,99.57
2023-01-02T23:35:04.617Z,99.61
2023-01-02T23:37:21.913Z,99.63
2023-01-02T23:39:40.158Z,99.97
2023-01-02T23:41:57.270Z,99.90
2023-01-02T23:44:14.518Z,99.90
2023-01-02T23:46:31.568Z,99.09
2023-01-02T23:48:48.600Z,99.83
2023-01-02T23:51:05.775Z,99.90
2023-01-02T23:53:22.769Z,100.00
2023-01-02T23:55:39.857Z,99.48
2023-01-02T23:57:57.157Z,99.77
